Terminal Aerodrome Forecast
Issued by NWS

Home | Current Version | Previous Version | Text Only | Print | Product List | Glossary On
Versions: 1 2 3 4 5 6 7 8 9 10 11 12 13 14 15 16
000
FTAK31 PANC 300528
TAFADQ
TAF
PADQ 300528Z 3006/3106 29005KT P6SM SKC
     FM301200 08008KT P6SM SCT060 BKN120
     FM301500 07018G28KT 4SM -SN OVC015
     FM301800 07025G35KT 2SM -SN BLSN VV008
     FM302100 06030G40KT 2SM RA BR SCT008 OVC012
     FM310300 05018G28KT 2SM -RA BR BKN008 OVC012=

USA.gov is the U.S. government's official web portal to all federal, state and local government web resources and services.